createdAt,value
2023-05-19T00:01:30.294Z,86.20
2023-05-19T00:04:02.385Z,87.28
2023-05-19T00:06:32.072Z,87.45
2023-05-19T00:09:08.280Z,88.33
2023-05-19T00:11:38.136Z,88.52
2023-05-19T00:14:08.491Z,89.46
2023-05-19T00:16:36.385Z,90.33
2023-05-19T00:19:05.427Z,90.95
2023-05-19T00:21:32.961Z,91.46
2023-05-19T00:24:00.130Z,92.40
2023-05-19T00:26:27.756Z,93.00
2023-05-19T00:28:55.056Z,93.90
2023-05-19T00:31:22.308Z,94.90
2023-05-19T00:33:49.421Z,95.45
2023-05-19T00:36:16.487Z,95.95
2023-05-19T00:38:43.588Z,97.64
2023-05-19T00:41:11.058Z,97.68
2023-05-19T00:43:38.134Z,99.07
2023-05-19T00:46:05.430Z,100.00
2023-05-19T00:48:32.576Z,100.00
2023-05-19T00:51:04.821Z,100.00
2023-05-19T00:53:34.324Z,100.00
2023-05-19T00:56:03.098Z,100.00
2023-05-19T00:58:32.698Z,100.00
2023-05-19T01:01:04.562Z,100.00
2023-05-19T01:03:37.292Z,100.00
2023-05-19T01:06:05.389Z,100.00
2023-05-19T01:08:37.697Z,100.00
2023-05-19T01:11:08.550Z,100.00
2023-05-19T01:13:36.932Z,100.00
2023-05-19T01:16:30.771Z,100.00
2023-05-19T01:19:21.973Z,100.00
2023-05-19T01:22:33.415Z,100.00
2023-05-19T01:25:47.137Z,100.00
2023-05-19T01:29:07.617Z,100.00
2023-05-19T01:31:38.776Z,100.00
2023-05-19T01:34:07.757Z,100.00
2023-05-19T01:36:36.135Z,100.00
2023-05-19T01:39:04.318Z,100.00
2023-05-19T01:41:33.751Z,100.00
2023-05-19T01:44:01.251Z,100.00
2023-05-19T01:46:28.378Z,100.00
2023-05-19T01:48:56.049Z,100.00
2023-05-19T01:51:23.213Z,100.00
2023-05-19T01:53:50.377Z,100.00
2023-05-19T01:56:38.296Z,100.00
2023-05-19T01:59:31.681Z,100.00
2023-05-19T02:02:02.237Z,100.00
2023-05-19T02:04:45.005Z,100.00
2023-05-19T02:07:53.718Z,100.00
2023-05-19T02:10:33.798Z,100.00
2023-05-19T02:13:04.629Z,100.00
2023-05-19T02:15:40.297Z,100.00
2023-05-19T02:18:11.728Z,100.00
2023-05-19T02:20:40.115Z,100.00
2023-05-19T02:23:07.400Z,100.00
2023-05-19T02:25:34.782Z,100.00
2023-05-19T02:28:01.903Z,100.00
2023-05-19T02:30:29.075Z,100.00
2023-05-19T02:32:56.245Z,100.00
2023-05-19T02:35:23.408Z,100.00
2023-05-19T02:37:50.541Z,100.00
2023-05-19T02:40:18.378Z,100.00
2023-05-19T02:42:45.557Z,100.00
2023-05-19T02:45:12.692Z,100.00
2023-05-19T02:47:41.478Z,100.00
2023-05-19T02:50:09.267Z,100.00
2023-05-19T02:52:36.383Z,100.00
2023-05-19T02:55:03.557Z,100.00
2023-05-19T02:57:31.855Z,100.00
2023-05-19T02:59:59.090Z,100.00
2023-05-19T03:02:26.134Z,100.00
2023-05-19T03:04:53.265Z,100.00
2023-05-19T03:07:25.049Z,100.00
2023-05-19T03:09:52.580Z,100.00
2023-05-19T03:12:19.581Z,100.00
2023-05-19T03:14:47.675Z,100.00
2023-05-19T03:17:14.865Z,100.00
2023-05-19T03:19:42.167Z,100.00
2023-05-19T03:22:09.280Z,100.00
2023-05-19T03:24:36.401Z,100.00
2023-05-19T03:27:05.950Z,100.00
2023-05-19T03:29:33.101Z,100.00
2023-05-19T03:32:00.330Z,100.00
2023-05-19T03:34:27.519Z,100.00
2023-05-19T03:36:54.569Z,100.00
2023-05-19T03:39:21.637Z,100.00
2023-05-19T03:41:48.768Z,100.00
2023-05-19T03:44:15.881Z,100.00
2023-05-19T03:46:42.973Z,100.00
2023-05-19T03:49:11.436Z,100.00
2023-05-19T03:51:38.728Z,100.00
2023-05-19T03:54:06.097Z,100.00
2023-05-19T03:56:33.263Z,100.00
2023-05-19T03:59:00.311Z,100.00
2023-05-19T04:01:27.354Z,100.00
2023-05-19T04:03:54.667Z,100.00
2023-05-19T04:06:22.094Z,100.00
2023-05-19T04:08:49.178Z,100.00
2023-05-19T04:11:16.324Z,100.00
2023-05-19T04:13:44.548Z,100.00
2023-05-19T04:16:12.320Z,100.00
2023-05-19T04:18:39.586Z,100.00
2023-05-19T04:21:08.636Z,100.00
2023-05-19T04:23:35.708Z,100.00
2023-05-19T04:26:03.754Z,100.00
2023-05-19T04:28:30.997Z,100.00
2023-05-19T04:30:58.860Z,100.00
2023-05-19T04:33:26.026Z,100.00
2023-05-19T04:35:53.048Z,100.00
2023-05-19T04:38:22.214Z,100.00
2023-05-19T04:40:50.394Z,100.00
2023-05-19T04:43:19.260Z,100.00
2023-05-19T04:45:47.339Z,100.00
2023-05-19T04:48:15.166Z,100.00
2023-05-19T04:50:42.360Z,100.00
2023-05-19T04:53:10.103Z,100.00
2023-05-19T04:55:38.744Z,100.00
2023-05-19T04:58:06.777Z,100.00
2023-05-19T05:00:35.747Z,100.00
2023-05-19T05:03:07.242Z,100.00
2023-05-19T05:05:35.324Z,100.00
2023-05-19T05:08:03.196Z,100.00
2023-05-19T05:10:30.478Z,100.00
2023-05-19T05:12:58.303Z,100.00
2023-05-19T05:15:28.688Z,100.00
2023-05-19T05:17:56.716Z,100.00
2023-05-19T05:20:24.516Z,100.00
2023-05-19T05:22:52.142Z,100.00
2023-05-19T05:25:20.275Z,100.00
2023-05-19T05:27:47.313Z,100.00
2023-05-19T05:30:14.584Z,100.00
2023-05-19T05:32:41.894Z,100.00
2023-05-19T05:35:09.687Z,100.00
2023-05-19T05:37:36.710Z,100.00
2023-05-19T05:40:04.824Z,100.00
2023-05-19T05:42:31.923Z,100.00
2023-05-19T05:44:58.979Z,100.00
2023-05-19T05:47:26.550Z,100.00
2023-05-19T05:49:53.992Z,100.00
2023-05-19T05:52:22.972Z,100.00
2023-05-19T05:54:50.893Z,100.00
2023-05-19T05:57:18.356Z,100.00
2023-05-19T05:59:47.154Z,100.00
2023-05-19T06:02:14.618Z,100.00
2023-05-19T06:04:41.917Z,100.00
2023-05-19T06:07:08.991Z,100.00
2023-05-19T06:09:36.647Z,100.00
2023-05-19T06:12:04.262Z,100.00
2023-05-19T06:14:31.282Z,100.00
2023-05-19T06:16:58.363Z,100.00
2023-05-19T06:19:25.788Z,100.00
2023-05-19T06:21:53.005Z,100.00
2023-05-19T06:24:20.187Z,100.00
2023-05-19T06:26:47.501Z,100.00
2023-05-19T06:29:14.757Z,100.00
2023-05-19T06:31:41.953Z,100.00
2023-05-19T06:34:12.296Z,100.00
2023-05-19T06:36:41.451Z,100.00
2023-05-19T06:39:08.559Z,100.00
2023-05-19T06:41:35.723Z,100.00
2023-05-19T06:44:04.216Z,100.00
2023-05-19T06:46:31.386Z,100.00
2023-05-19T06:48:58.588Z,100.00
2023-05-19T06:51:25.871Z,100.00
2023-05-19T06:53:53.102Z,100.00
2023-05-19T06:56:20.243Z,100.00
2023-05-19T06:58:47.284Z,100.00
2023-05-19T07:01:14.421Z,100.00
2023-05-19T07:03:41.869Z,100.00
2023-05-19T07:06:09.275Z,100.00
2023-05-19T07:08:37.306Z,100.00
2023-05-19T07:11:04.948Z,100.00
2023-05-19T07:13:33.028Z,100.00
2023-05-19T07:16:00.274Z,100.00
2023-05-19T07:18:27.430Z,100.00
2023-05-19T07:20:54.550Z,100.00
2023-05-19T07:23:21.691Z,100.00
2023-05-19T07:25:48.791Z,100.00
2023-05-19T07:28:15.988Z,100.00
2023-05-19T07:30:43.243Z,100.00
2023-05-19T07:33:10.358Z,100.00
2023-05-19T07:35:37.664Z,100.00
2023-05-19T07:38:04.824Z,100.00
2023-05-19T07:40:32.202Z,100.00
2023-05-19T07:42:59.519Z,100.00
2023-05-19T07:45:26.599Z,100.00
2023-05-19T07:47:54.473Z,100.00
2023-05-19T07:50:21.662Z,100.00
2023-05-19T07:52:48.705Z,100.00
2023-05-19T07:55:16.197Z,100.00
2023-05-19T07:57:43.270Z,100.00
2023-05-19T08:00:12.561Z,100.00
2023-05-19T08:02:39.839Z,100.00
2023-05-19T08:05:09.248Z,100.00
2023-05-19T08:07:36.650Z,100.00
2023-05-19T08:10:05.261Z,100.00
2023-05-19T08:12:32.553Z,100.00
2023-05-19T08:15:01.312Z,100.00
2023-05-19T08:17:28.944Z,97.89
2023-05-19T08:19:56.063Z,95.92
2023-05-19T08:22:23.411Z,93.19
2023-05-19T08:24:51.880Z,90.40
2023-05-19T08:27:18.973Z,89.43
2023-05-19T08:29:46.058Z,88.33
2023-05-19T08:32:13.446Z,86.53
2023-05-19T08:34:41.460Z,85.05
2023-05-19T08:37:08.796Z,83.29
2023-05-19T08:39:35.954Z,81.76
2023-05-19T08:42:03.205Z,81.36
2023-05-19T08:44:31.297Z,80.67
2023-05-19T08:47:03.855Z,80.21
2023-05-19T08:49:43.371Z,78.81
2023-05-19T08:52:35.912Z,77.64
2023-05-19T08:55:15.572Z,77.46
2023-05-19T08:57:43.204Z,76.05
2023-05-19T09:00:12.322Z,74.87
2023-05-19T09:02:50.402Z,74.32
2023-05-19T09:05:27.482Z,72.95
2023-05-19T09:07:55.136Z,72.43
2023-05-19T09:10:22.434Z,71.63
2023-05-19T09:12:49.904Z,70.46
2023-05-19T09:15:20.284Z,70.44
2023-05-19T09:17:50.571Z,70.15
2023-05-19T09:20:18.195Z,69.21
2023-05-19T09:22:47.486Z,68.14
2023-05-19T09:25:24.123Z,66.49
2023-05-19T09:27:51.529Z,65.55
2023-05-19T09:30:19.560Z,64.96
2023-05-19T09:32:48.088Z,64.04
2023-05-19T09:35:20.254Z,64.08
2023-05-19T09:37:47.426Z,63.37
2023-05-19T09:40:16.366Z,62.30
2023-05-19T09:42:44.358Z,61.32
2023-05-19T09:45:12.080Z,60.71
2023-05-19T09:47:42.140Z,60.37
2023-05-19T09:50:12.454Z,60.42
2023-05-19T09:52:42.898Z,59.74
2023-05-19T09:55:12.849Z,58.95
2023-05-19T09:57:40.828Z,58.32
2023-05-19T10:00:17.866Z,58.55
2023-05-19T10:02:51.035Z,58.16
2023-05-19T10:05:20.910Z,57.98
2023-05-19T10:07:52.395Z,57.29
2023-05-19T10:10:20.916Z,57.27
2023-05-19T10:12:49.839Z,57.05
2023-05-19T10:15:21.406Z,56.80
2023-05-19T10:17:51.325Z,57.01
2023-05-19T10:20:19.054Z,56.61
2023-05-19T10:22:46.800Z,56.48
2023-05-19T10:25:15.323Z,56.07
2023-05-19T10:28:10.976Z,55.94
2023-05-19T10:30:43.574Z,55.80
2023-05-19T10:33:16.191Z,55.10
2023-05-19T10:36:27.183Z,54.14
2023-05-19T10:39:06.312Z,54.11
2023-05-19T10:41:59.453Z,54.36
2023-05-19T10:45:02.806Z,53.82
2023-05-19T10:47:30.593Z,54.06
2023-05-19T10:50:01.363Z,53.54
2023-05-19T10:52:30.998Z,53.93
2023-05-19T10:54:58.402Z,54.33
2023-05-19T10:57:32.186Z,53.98
2023-05-19T11:00:11.098Z,53.96
2023-05-19T11:02:50.896Z,53.82
2023-05-19T11:05:20.975Z,53.90
2023-05-19T11:08:11.595Z,53.46
2023-05-19T11:10:47.096Z,53.69
2023-05-19T11:13:22.731Z,53.57
2023-05-19T11:15:50.203Z,53.28
2023-05-19T11:18:17.399Z,53.36
2023-05-19T11:20:59.984Z,52.82
2023-05-19T11:23:27.337Z,53.04
2023-05-19T11:25:54.528Z,53.00
2023-05-19T11:28:28.169Z,53.39
2023-05-19T11:31:01.211Z,53.61
2023-05-19T11:33:28.604Z,53.45
2023-05-19T11:36:00.338Z,52.72
2023-05-19T11:38:30.180Z,53.15
2023-05-19T11:40:57.635Z,52.69
2023-05-19T11:43:26.179Z,52.17
2023-05-19T11:45:55.239Z,51.77
2023-05-19T11:48:27.526Z,51.65
2023-05-19T11:50:57.144Z,52.02
2023-05-19T11:53:24.592Z,51.68
2023-05-19T11:55:52.017Z,51.40
2023-05-19T11:58:26.983Z,51.27
2023-05-19T12:00:54.637Z,51.45
2023-05-19T12:03:28.107Z,51.22
2023-05-19T12:05:58.543Z,51.35
2023-05-19T12:08:27.238Z,51.38
2023-05-19T12:10:54.385Z,51.10
2023-05-19T12:13:23.055Z,51.03
2023-05-19T12:15:52.593Z,51.03
2023-05-19T12:18:20.388Z,50.94
2023-05-19T12:20:47.767Z,51.09
2023-05-19T12:23:15.083Z,50.85
2023-05-19T12:25:42.457Z,50.63
2023-05-19T12:28:10.093Z,50.53
2023-05-19T12:30:37.754Z,50.67
2023-05-19T12:33:05.559Z,50.68
2023-05-19T12:35:34.042Z,50.71
2023-05-19T12:38:06.717Z,50.33
2023-05-19T12:40:36.291Z,50.53
2023-05-19T12:43:04.530Z,50.08
2023-05-19T12:45:37.117Z,49.78
2023-05-19T12:48:16.698Z,49.11
2023-05-19T12:50:45.286Z,49.03
2023-05-19T12:53:13.656Z,48.95
2023-05-19T12:55:45.440Z,48.95
2023-05-19T12:58:13.381Z,48.55
2023-05-19T13:00:44.887Z,48.26
2023-05-19T13:03:20.647Z,47.81
2023-05-19T13:05:51.206Z,48.05
2023-05-19T13:08:24.163Z,48.10
2023-05-19T13:10:54.687Z,47.61
2023-05-19T13:13:22.031Z,47.78
2023-05-19T13:15:49.409Z,47.92
2023-05-19T13:18:17.494Z,47.66
2023-05-19T13:20:46.467Z,48.27
2023-05-19T13:23:14.814Z,47.99
2023-05-19T13:25:42.630Z,47.93
2023-05-19T13:28:10.334Z,47.76
2023-05-19T13:30:40.838Z,47.62
2023-05-19T13:33:08.133Z,47.40
2023-05-19T13:35:38.425Z,47.34
2023-05-19T13:38:10.757Z,47.53
2023-05-19T13:40:39.637Z,47.60
2023-05-19T13:43:07.906Z,47.74
2023-05-19T13:45:35.097Z,47.84
2023-05-19T13:48:02.504Z,47.69
2023-05-19T13:50:29.722Z,47.92
2023-05-19T13:52:56.804Z,48.13
2023-05-19T13:55:24.240Z,48.02
2023-05-19T13:57:51.310Z,47.72
2023-05-19T14:00:19.593Z,47.62
2023-05-19T14:02:47.061Z,47.36
2023-05-19T14:05:14.455Z,47.27
2023-05-19T14:07:42.556Z,47.24
2023-05-19T14:10:10.239Z,47.16
2023-05-19T14:12:55.001Z,46.99
2023-05-19T14:15:24.516Z,47.19
2023-05-19T14:17:53.068Z,47.44
2023-05-19T14:20:20.513Z,47.66
2023-05-19T14:22:47.627Z,47.33
2023-05-19T14:25:14.908Z,47.23
2023-05-19T14:27:42.018Z,46.99
2023-05-19T14:30:09.777Z,46.56
2023-05-19T14:32:36.943Z,46.63
2023-05-19T14:35:04.732Z,46.69
2023-05-19T14:37:32.376Z,46.80
2023-05-19T14:39:59.921Z,46.34
2023-05-19T14:42:27.092Z,46.35
2023-05-19T14:44:54.312Z,46.71
2023-05-19T14:47:21.450Z,46.41
2023-05-19T14:49:48.759Z,47.11
2023-05-19T14:52:15.882Z,46.57
2023-05-19T14:54:42.986Z,46.83
2023-05-19T14:57:12.918Z,46.87
2023-05-19T14:59:40.257Z,47.07
2023-05-19T15:02:07.848Z,46.87
2023-05-19T15:04:34.954Z,46.31
2023-05-19T15:09:31.967Z,45.92
2023-05-19T15:12:01.220Z,45.87
2023-05-19T15:14:30.594Z,45.54
2023-05-19T15:16:58.657Z,45.61
2023-05-19T15:19:26.181Z,45.41
2023-05-19T15:21:53.702Z,44.98
2023-05-19T15:24:20.850Z,44.26
2023-05-19T15:26:48.225Z,44.42
2023-05-19T15:29:15.341Z,44.03
2023-05-19T15:31:42.455Z,43.51
2023-05-19T15:34:09.690Z,42.86
2023-05-19T15:36:36.839Z,43.39
2023-05-19T15:39:04.010Z,43.01
2023-05-19T15:41:31.176Z,43.47
2023-05-19T15:44:00.338Z,42.94
2023-05-19T15:46:28.101Z,42.51
2023-05-19T15:48:55.591Z,42.51
2023-05-19T15:51:22.954Z,42.42
2023-05-19T15:53:50.141Z,42.10
2023-05-19T15:56:17.606Z,41.72
2023-05-19T15:58:45.084Z,41.25
2023-05-19T16:01:12.372Z,41.36
2023-05-19T16:03:39.605Z,41.55
2023-05-19T16:06:06.897Z,41.57
2023-05-19T16:08:34.067Z,41.34
2023-05-19T16:11:01.127Z,41.15
2023-05-19T16:13:29.741Z,40.57
2023-05-19T16:15:57.277Z,40.51
2023-05-19T16:18:24.324Z,40.59
2023-05-19T16:20:52.010Z,40.51
2023-05-19T16:23:19.153Z,40.51
2023-05-19T16:25:47.070Z,40.34
2023-05-19T16:28:14.715Z,39.90
2023-05-19T16:30:42.589Z,39.56
2023-05-19T16:33:09.712Z,39.19
2023-05-19T16:35:37.096Z,39.41
2023-05-19T16:38:04.199Z,39.18
2023-05-19T16:40:31.333Z,39.13
2023-05-19T16:42:58.472Z,38.96
2023-05-19T16:45:26.605Z,38.90
2023-05-19T16:47:53.779Z,38.76
2023-05-19T16:50:20.843Z,38.51
2023-05-19T16:52:47.878Z,37.79
2023-05-19T16:55:19.730Z,37.98
2023-05-19T16:57:47.427Z,38.44
2023-05-19T17:00:15.618Z,38.53
2023-05-19T17:02:42.864Z,38.29
2023-05-19T17:05:10.123Z,38.47
2023-05-19T17:07:37.185Z,38.12
2023-05-19T17:10:04.960Z,37.71
2023-05-19T17:12:32.267Z,37.59
2023-05-19T17:14:59.337Z,37.28
2023-05-19T17:17:26.506Z,36.90
2023-05-19T17:19:53.700Z,36.68
2023-05-19T17:22:20.869Z,36.82
2023-05-19T17:24:48.090Z,36.55
2023-05-19T17:27:15.261Z,36.38
2023-05-19T17:29:42.449Z,36.78
2023-05-19T17:32:09.653Z,36.61
2023-05-19T17:34:36.823Z,36.36
2023-05-19T17:37:04.244Z,36.26
2023-05-19T17:39:31.413Z,36.32
2023-05-19T17:41:58.592Z,35.96
2023-05-19T17:44:25.812Z,35.47
2023-05-19T17:46:53.223Z,35.34
2023-05-19T17:49:22.959Z,35.70
2023-05-19T17:51:50.570Z,35.52
2023-05-19T17:54:18.195Z,35.66
2023-05-19T17:56:45.912Z,36.09
2023-05-19T17:59:13.215Z,36.30
2023-05-19T18:01:41.023Z,36.92
2023-05-19T18:04:09.008Z,37.56
2023-05-19T18:06:40.890Z,37.82
2023-05-19T18:09:09.099Z,38.26
2023-05-19T18:11:36.792Z,38.50
2023-05-19T18:14:03.880Z,39.05
2023-05-19T18:16:31.269Z,39.35
2023-05-19T18:18:58.664Z,39.51
2023-05-19T18:21:29.668Z,40.07
2023-05-19T18:23:59.617Z,40.29
2023-05-19T18:26:26.825Z,40.47
2023-05-19T18:28:53.927Z,41.03
2023-05-19T18:31:21.086Z,41.35
2023-05-19T18:33:49.122Z,41.28
2023-05-19T18:36:16.673Z,41.78
2023-05-19T18:38:43.918Z,41.76
2023-05-19T18:41:11.109Z,42.16
2023-05-19T18:43:39.079Z,42.38
2023-05-19T18:46:06.816Z,42.53
2023-05-19T18:48:33.905Z,42.76
2023-05-19T18:51:03.654Z,43.05
2023-05-19T18:53:34.837Z,43.13
2023-05-19T18:56:05.758Z,43.55
2023-05-19T18:58:33.111Z,43.94
2023-05-19T19:01:00.269Z,43.96
2023-05-19T19:03:28.596Z,44.23
2023-05-19T19:05:59.340Z,44.23
2023-05-19T19:08:26.643Z,44.57
2023-05-19T19:10:59.233Z,44.81
2023-05-19T19:13:26.867Z,44.91
2023-05-19T19:15:54.157Z,45.31
2023-05-19T19:18:21.266Z,45.50
2023-05-19T19:20:48.456Z,45.73
2023-05-19T19:23:15.499Z,45.83
2023-05-19T19:25:45.714Z,45.99
2023-05-19T19:28:13.038Z,46.29
2023-05-19T19:30:40.556Z,46.54
2023-05-19T19:33:07.732Z,46.39
2023-05-19T19:35:35.059Z,46.83
2023-05-19T19:38:02.400Z,46.90
2023-05-19T19:40:29.711Z,47.14
2023-05-19T19:42:56.849Z,47.41
2023-05-19T19:45:24.074Z,47.54
2023-05-19T19:47:51.756Z,47.69
2023-05-19T19:50:19.008Z,47.83
2023-05-19T19:52:46.251Z,47.96
2023-05-19T19:55:13.682Z,47.87
2023-05-19T19:57:40.782Z,48.10
2023-05-19T20:00:09.330Z,48.43
2023-05-19T20:02:55.361Z,48.49
2023-05-19T20:05:26.922Z,48.44
2023-05-19T20:07:54.011Z,48.68
2023-05-19T20:10:21.036Z,48.84
2023-05-19T20:12:48.211Z,49.02
2023-05-19T20:15:15.614Z,49.45
2023-05-19T20:17:42.832Z,49.57
2023-05-19T20:20:14.108Z,49.59
2023-05-19T20:22:41.238Z,49.94
2023-05-19T20:25:11.548Z,50.15
2023-05-19T20:27:38.600Z,50.13
2023-05-19T20:30:06.625Z,50.23
2023-05-19T20:32:33.810Z,50.41
2023-05-19T20:35:00.902Z,50.56
2023-05-19T20:37:27.929Z,50.78
2023-05-19T20:39:54.982Z,51.08
2023-05-19T20:42:22.166Z,51.02
2023-05-19T20:44:49.209Z,51.42
2023-05-19T20:47:16.291Z,51.62
2023-05-19T20:49:43.407Z,51.59
2023-05-19T20:52:10.849Z,51.95
2023-05-19T20:54:38.255Z,51.91
2023-05-19T20:57:09.138Z,52.08
2023-05-19T20:59:36.559Z,52.17
2023-05-19T21:02:04.452Z,52.54
2023-05-19T21:04:33.046Z,52.67
2023-05-19T21:07:01.181Z,52.95
2023-05-19T21:09:28.285Z,53.12
2023-05-19T21:11:55.487Z,53.21
2023-05-19T21:14:23.090Z,53.50
2023-05-19T21:16:54.354Z,53.69
2023-05-19T21:19:22.093Z,53.95
2023-05-19T21:21:49.592Z,54.16
2023-05-19T21:24:16.803Z,54.07
2023-05-19T21:26:44.084Z,54.31
2023-05-19T21:29:11.206Z,54.62
2023-05-19T21:31:38.508Z,54.67
2023-05-19T21:34:07.575Z,54.92
2023-05-19T21:36:35.348Z,55.27
2023-05-19T21:39:02.622Z,55.41
2023-05-19T21:41:31.230Z,55.46
2023-05-19T21:43:58.382Z,55.72
2023-05-19T21:46:26.653Z,55.63
2023-05-19T21:48:53.734Z,55.74
2023-05-19T21:51:21.257Z,55.93
2023-05-19T21:53:48.236Z,56.24
2023-05-19T21:56:16.415Z,56.31
2023-05-19T21:58:43.463Z,56.37
2023-05-19T22:01:10.577Z,56.67
2023-05-19T22:03:37.771Z,56.80
2023-05-19T22:06:06.556Z,57.11
2023-05-19T22:08:33.693Z,57.15
2023-05-19T22:11:00.779Z,57.36
2023-05-19T22:13:27.786Z,57.54
2023-05-19T22:15:55.109Z,57.92
2023-05-19T22:18:22.464Z,57.99
2023-05-19T22:20:49.561Z,58.05
2023-05-19T22:23:16.691Z,58.58
2023-05-19T22:25:43.899Z,58.36
2023-05-19T22:28:11.018Z,58.59
2023-05-19T22:30:40.949Z,58.85
2023-05-19T22:33:09.465Z,59.09
2023-05-19T22:35:36.892Z,59.13
2023-05-19T22:38:03.915Z,59.36
2023-05-19T22:40:31.149Z,59.66
2023-05-19T22:42:58.220Z,59.81
2023-05-19T22:45:25.589Z,59.92
2023-05-19T22:47:52.764Z,59.99
2023-05-19T22:50:20.126Z,60.10
2023-05-19T22:52:47.361Z,60.45
2023-05-19T22:55:14.493Z,60.35
2023-05-19T22:57:41.515Z,60.68
2023-05-19T23:00:09.732Z,60.89
2023-05-19T23:02:37.006Z,61.21
2023-05-19T23:05:04.426Z,61.32
2023-05-19T23:07:31.487Z,61.27
2023-05-19T23:09:58.581Z,61.85
2023-05-19T23:12:25.937Z,61.88
2023-05-19T23:14:53.433Z,61.94
2023-05-19T23:17:20.440Z,61.91
2023-05-19T23:19:47.499Z,62.37
2023-05-19T23:22:14.597Z,62.38
2023-05-19T23:24:41.606Z,62.64
2023-05-19T23:27:08.688Z,63.35
2023-05-19T23:29:35.932Z,63.24
2023-05-19T23:32:03.206Z,63.40
2023-05-19T23:34:30.224Z,63.52
2023-05-19T23:36:57.259Z,63.58
2023-05-19T23:39:25.477Z,63.89
2023-05-19T23:41:52.688Z,64.24
2023-05-19T23:44:19.739Z,64.53
2023-05-19T23:46:46.822Z,65.00
2023-05-19T23:49:14.629Z,65.41
2023-05-19T23:51:41.693Z,65.58
2023-05-19T23:54:08.701Z,65.58
2023-05-19T23:56:35.779Z,66.09
2023-05-19T23:59:02.856Z,66.43
